Time;durP1;ratioP1;P1;durP2;ratioP2;P2;SDS_P1;SDS_P2;PMS_P1;PMS_P2;Temp;Humidity;BMP_temperature;BMP_pressure;BME280_temperature;BME280_humidity;BME280_pressure;Samples;Min_cycle;Max_cycle;Signal;HPM_P1;HPM_P2
2023/12/25 00:00:55;;;;;;;1.13;1.13;;;11.50;48.80;;;;;;5048424;28;20211;-67
2023/12/25 00:03:22;;;;;;;1.77;1.00;;;11.50;48.30;;;;;;5043844;28;20243;-69
2023/12/25 00:05:48;;;;;;;1.40;1.30;;;11.60;47.80;;;;;;5043091;28;20251;-68
2023/12/25 00:08:15;;;;;;;1.03;1.00;;;11.60;47.80;;;;;;5040378;28;20236;-68
2023/12/25 00:10:41;;;;;;;1.10;1.10;;;11.50;48.00;;;;;;5044751;28;20286;-68
2023/12/25 00:13:08;;;;;;;1.40;1.30;;;11.50;48.00;;;;;;5037680;28;20276;-68
2023/12/25 00:15:34;;;;;;;1.93;1.20;;;11.60;47.70;;;;;;5046929;28;20266;-69
2023/12/25 00:18:01;;;;;;;1.10;1.10;;;11.60;47.50;;;;;;5043996;28;20210;-68
2023/12/25 00:20:27;;;;;;;1.30;1.20;;;11.50;47.80;;;;;;5044575;28;20245;-69
2023/12/25 00:22:54;;;;;;;1.10;1.10;;;11.60;47.40;;;;;;5037208;28;20307;-69
2023/12/25 00:25:20;;;;;;;1.67;1.20;;;11.60;47.40;;;;;;5040920;28;20351;-68
2023/12/25 00:27:47;;;;;;;1.30;1.30;;;11.60;46.60;;;;;;5034050;28;20296;-69
2023/12/25 00:30:14;;;;;;;1.40;1.30;;;11.60;46.50;;;;;;5044582;28;20206;-68
2023/12/25 00:32:40;;;;;;;1.30;1.20;;;11.60;46.90;;;;;;5043722;28;20230;-68
2023/12/25 00:35:07;;;;;;;1.07;1.07;;;11.70;46.00;;;;;;5046887;28;20668;-68
2023/12/25 00:37:33;;;;;;;1.30;1.20;;;11.70;46.00;;;;;;5051939;28;20209;-68
2023/12/25 00:40:00;;;;;;;1.20;1.20;;;11.70;46.00;;;;;;5044126;28;20202;-68
2023/12/25 00:42:26;;;;;;;1.60;1.03;;;11.70;45.70;;;;;;5051892;28;20213;-68
2023/12/25 00:44:53;;;;;;;1.10;1.10;;;11.60;45.70;;;;;;5043220;28;20249;-69
2023/12/25 00:47:19;;;;;;;1.43;1.30;;;11.60;45.90;;;;;;5039067;28;20213;-68
2023/12/25 00:49:46;;;;;;;1.40;1.40;;;11.60;44.90;;;;;;5045817;28;20255;-68
2023/12/25 00:52:15;;;;;;;2.20;1.10;;;11.60;45.30;;;;;;5038862;28;20202;-68
2023/12/25 00:54:41;;;;;;;1.23;1.20;;;11.60;44.80;;;;;;5040584;28;20215;-69
2023/12/25 00:57:08;;;;;;;1.03;1.00;;;11.60;44.60;;;;;;5048163;28;20241;-68
2023/12/25 00:59:34;;;;;;;1.00;1.00;;;11.60;44.30;;;;;;5040670;28;20356;-68
2023/12/25 01:02:01;;;;;;;1.10;1.10;;;11.60;44.00;;;;;;5044602;28;20558;-69
2023/12/25 01:04:27;;;;;;;1.10;1.10;;;11.60;44.20;;;;;;5049201;28;20238;-68
2023/12/25 01:06:54;;;;;;;1.30;1.20;;;11.60;43.80;;;;;;5041445;28;20301;-68
2023/12/25 01:09:20;;;;;;;1.30;1.20;;;11.50;43.80;;;;;;5042111;28;20263;-68
2023/12/25 01:11:47;;;;;;;1.10;1.10;;;11.50;44.00;;;;;;5044217;28;20237;-68
2023/12/25 01:14:14;;;;;;;1.17;1.17;;;11.50;44.70;;;;;;5044696;28;20259;-68
2023/12/25 01:16:40;;;;;;;1.17;1.17;;;11.60;43.00;;;;;;5045386;28;20275;-69
2023/12/25 01:19:07;;;;;;;2.20;1.40;;;11.70;42.50;;;;;;5040274;28;20588;-69
2023/12/25 01:21:34;;;;;;;1.10;1.10;;;11.60;42.70;;;;;;5042072;28;20238;-69
2023/12/25 01:24:00;;;;;;;1.10;1.10;;;11.60;42.60;;;;;;5025657;28;20206;-69
2023/12/25 01:26:30;;;;;;;1.20;1.10;;;11.60;42.40;;;;;;5044664;28;20303;-69
2023/12/25 01:28:57;;;;;;;1.10;1.10;;;11.50;42.80;;;;;;5046350;28;20293;-69
2023/12/25 01:31:23;;;;;;;1.10;1.10;;;11.50;43.30;;;;;;5044751;28;20284;-70
2023/12/25 01:33:50;;;;;;;1.30;1.30;;;11.50;42.20;;;;;;5047051;28;20263;-69
2023/12/25 01:36:16;;;;;;;1.10;1.10;;;11.50;42.60;;;;;;5044382;28;20225;-69
2023/12/25 01:38:43;;;;;;;1.20;1.20;;;11.40;42.10;;;;;;5040108;28;20260;-68
2023/12/25 01:43:37;;;;;;;1.30;1.20;;;11.50;42.00;;;;;;5037801;28;20233;-69
2023/12/25 01:46:04;;;;;;;1.20;1.20;;;11.50;41.20;;;;;;5031213;28;20626;-69
2023/12/25 01:48:30;;;;;;;1.20;1.20;;;11.40;41.20;;;;;;5029844;28;20625;-69
2023/12/25 01:51:00;;;;;;;1.33;1.03;;;11.40;41.10;;;;;;5030646;28;20550;-69
2023/12/25 01:53:27;;;;;;;1.13;1.10;;;11.50;40.80;;;;;;5028206;28;20214;-69
2023/12/25 01:55:53;;;;;;;1.10;1.10;;;11.40;40.80;;;;;;5027692;28;20687;-69
2023/12/25 01:58:20;;;;;;;1.00;1.00;;;11.40;39.50;;;;;;5029167;28;20234;-69
2023/12/25 02:00:46;;;;;;;1.30;1.20;;;11.50;39.30;;;;;;5028920;28;20257;-70
2023/12/25 02:03:13;;;;;;;1.10;1.10;;;11.50;39.10;;;;;;5034156;28;20232;-68
2023/12/25 02:05:39;;;;;;;1.23;1.23;;;11.50;38.70;;;;;;5029453;28;20281;-68
2023/12/25 02:08:06;;;;;;;1.37;1.10;;;11.50;38.90;;;;;;5027206;28;20206;-69
2023/12/25 02:10:33;;;;;;;1.40;1.40;;;11.60;38.00;;;;;;5030154;28;20640;-69
2023/12/25 02:13:02;;;;;;;1.10;1.10;;;11.50;38.90;;;;;;5029470;28;20208;-69
2023/12/25 02:15:28;;;;;;;1.33;1.33;;;11.50;38.10;;;;;;5026213;28;21696;-67
2023/12/25 02:17:55;;;;;;;1.30;1.20;;;11.50;38.10;;;;;;5018772;28;20211;-69
2023/12/25 02:20:21;;;;;;;1.00;1.00;;;11.50;38.00;;;;;;5030335;28;20202;-69
2023/12/25 02:22:48;;;;;;;1.10;1.10;;;11.50;37.50;;;;;;5031277;28;20231;-68
2023/12/25 02:25:14;;;;;;;1.00;1.00;;;11.50;37.50;;;;;;5027167;28;20223;-69
2023/12/25 02:27:41;;;;;;;1.30;1.30;;;11.60;37.20;;;;;;5040742;28;20699;-69
2023/12/25 02:30:07;;;;;;;1.10;1.10;;;11.60;37.20;;;;;;5030655;28;20630;-69
2023/12/25 02:32:34;;;;;;;1.27;1.27;;;11.50;37.40;;;;;;5030145;28;20199;-68
2023/12/25 02:35:01;;;;;;;1.20;1.20;;;11.50;38.10;;;;;;5029124;28;20701;-68
2023/12/25 02:37:27;;;;;;;1.03;1.03;;;11.60;37.20;;;;;;5026750;28;20253;-68
2023/12/25 02:39:54;;;;;;;1.00;1.00;;;11.60;37.40;;;;;;5017151;28;20206;-70
2023/12/25 02:42:20;;;;;;;1.20;1.20;;;11.50;37.90;;;;;;5034682;28;20251;-69
2023/12/25 02:44:47;;;;;;;1.40;1.30;;;11.60;38.00;;;;;;5031060;28;20239;-69
2023/12/25 02:47:14;;;;;;;1.43;1.23;;;11.50;38.10;;;;;;5023456;28;20557;-69
2023/12/25 02:49:40;;;;;;;1.00;1.00;;;11.50;38.40;;;;;;5030630;28;20203;-69
2023/12/25 02:52:07;;;;;;;1.17;1.10;;;11.50;38.10;;;;;;5034564;28;20206;-69
2023/12/25 02:54:33;;;;;;;1.20;1.20;;;11.60;37.90;;;;;;5032569;28;20313;-69
2023/12/25 02:57:00;;;;;;;1.40;1.20;;;11.60;37.60;;;;;;5030252;28;20232;-69
2023/12/25 02:59:26;;;;;;;1.47;1.40;;;11.50;37.60;;;;;;5038708;28;20267;-69
2023/12/25 03:01:53;;;;;;;1.37;1.27;;;11.50;38.00;;;;;;5032005;28;20207;-70
2023/12/25 03:04:20;;;;;;;1.10;1.10;;;11.40;37.80;;;;;;5030354;28;20207;-69
2023/12/25 03:06:46;;;;;;;1.20;1.10;;;11.50;37.30;;;;;;5031479;28;20273;-69
2023/12/25 03:09:13;;;;;;;1.20;1.10;;;11.40;37.70;;;;;;5032840;28;20206;-69
2023/12/25 03:11:39;;;;;;;1.27;1.27;;;11.40;37.80;;;;;;5036840;28;20233;-69
2023/12/25 03:14:06;;;;;;;1.03;1.03;;;11.40;37.40;;;;;;5037425;28;20870;-69
2023/12/25 03:16:32;;;;;;;1.20;1.20;;;11.40;37.90;;;;;;5031258;28;20297;-69
2023/12/25 03:18:59;;;;;;;1.30;1.30;;;11.40;37.80;;;;;;5027418;28;20301;-69
2023/12/25 03:21:25;;;;;;;1.20;1.20;;;11.40;37.20;;;;;;5031081;28;20295;-69
2023/12/25 03:23:52;;;;;;;1.10;1.00;;;11.50;36.80;;;;;;5024125;28;20268;-69
2023/12/25 03:26:19;;;;;;;1.00;1.00;;;11.40;37.20;;;;;;5030766;28;20252;-68
2023/12/25 03:28:45;;;;;;;1.50;1.40;;;11.50;36.60;;;;;;5031615;28;20213;-68
2023/12/25 03:31:12;;;;;;;1.07;1.07;;;11.50;36.60;;;;;;5028890;28;20650;-70
2023/12/25 03:33:38;;;;;;;1.20;1.10;;;11.50;36.60;;;;;;5032681;28;20704;-69
2023/12/25 03:36:06;;;;;;;1.27;1.27;;;11.50;37.20;;;;;;5031339;28;20276;-70
2023/12/25 03:38:33;;;;;;;1.07;1.07;;;11.40;36.50;;;;;;5031365;28;20588;-70
2023/12/25 03:41:00;;;;;;;1.20;1.20;;;11.40;36.70;;;;;;5030623;28;20267;-69
2023/12/25 03:43:26;;;;;;;1.40;1.30;;;11.30;36.40;;;;;;5032086;28;20264;-69
2023/12/25 03:45:53;;;;;;;1.43;1.33;;;11.30;36.80;;;;;;5028926;28;20254;-69
2023/12/25 03:48:20;;;;;;;1.10;1.10;;;11.30;36.70;;;;;;5031163;28;20199;-70
2023/12/25 03:50:47;;;;;;;1.37;1.27;;;11.40;36.50;;;;;;5031839;28;20303;-69
2023/12/25 03:53:13;;;;;;;1.00;1.00;;;11.30;36.70;;;;;;5032411;28;20235;-69
2023/12/25 03:55:40;;;;;;;1.33;1.23;;;11.30;36.80;;;;;;5031444;28;20349;-68
2023/12/25 03:58:07;;;;;;;1.30;1.20;;;11.20;36.40;;;;;;5022426;28;20236;-70
2023/12/25 04:00:33;;;;;;;1.10;1.10;;;11.30;36.60;;;;;;5029932;28;20746;-69
2023/12/25 04:03:00;;;;;;;1.70;1.63;;;11.30;36.80;;;;;;5021735;28;20293;-69
2023/12/25 04:05:26;;;;;;;1.20;1.20;;;11.40;36.90;;;;;;5028091;28;20233;-68
2023/12/25 04:07:53;;;;;;;1.13;1.13;;;11.30;37.00;;;;;;5031548;28;20255;-69
2023/12/25 04:10:19;;;;;;;2.30;1.20;;;11.30;37.10;;;;;;5030792;28;20268;-68
2023/12/25 04:12:46;;;;;;;1.33;1.23;;;11.30;37.30;;;;;;5035852;28;20636;-70
2023/12/25 04:15:12;;;;;;;1.20;1.20;;;11.20;37.80;;;;;;5030960;28;20664;-69
2023/12/25 04:17:39;;;;;;;1.00;1.00;;;11.20;37.30;;;;;;5025400;28;20814;-69
2023/12/25 04:20:05;;;;;;;1.33;1.30;;;11.20;37.30;;;;;;5028727;28;20669;-69
2023/12/25 04:22:32;;;;;;;1.30;1.30;;;11.20;37.40;;;;;;5032075;28;20214;-69
2023/12/25 04:24:58;;;;;;;1.17;1.17;;;11.30;36.40;;;;;;5029829;28;20223;-69
2023/12/25 04:27:25;;;;;;;1.10;1.10;;;11.40;37.30;;;;;;5027160;28;20842;-69
2023/12/25 04:29:52;;;;;;;1.30;1.20;;;11.40;36.50;;;;;;5030643;28;20297;-68
2023/12/25 04:32:19;;;;;;;1.10;1.10;;;11.30;36.40;;;;;;5030832;28;20235;-69
2023/12/25 04:34:46;;;;;;;1.60;1.20;;;11.40;36.70;;;;;;5030763;28;20230;-68
2023/12/25 04:37:12;;;;;;;1.03;1.03;;;11.30;36.60;;;;;;5028618;28;20313;-68
2023/12/25 04:39:39;;;;;;;1.23;1.23;;;11.30;36.80;;;;;;5024583;28;20249;-69
2023/12/25 04:42:05;;;;;;;1.40;1.30;;;11.30;37.10;;;;;;5029524;28;20247;-69
2023/12/25 04:44:32;;;;;;;1.30;1.30;;;11.30;36.40;;;;;;5030933;28;20610;-69
2023/12/25 04:46:58;;;;;;;1.13;1.13;;;11.30;37.00;;;;;;5030105;28;20203;-69
2023/12/25 04:49:25;;;;;;;1.10;1.10;;;11.40;36.50;;;;;;5034514;28;20207;-69
2023/12/25 04:51:51;;;;;;;1.27;1.20;;;11.40;36.60;;;;;;5031354;28;20234;-69
2023/12/25 04:54:18;;;;;;;2.97;1.33;;;11.40;36.70;;;;;;5031526;28;20202;-69
2023/12/25 04:56:44;;;;;;;1.93;1.07;;;11.30;36.80;;;;;;5030678;28;20229;-70
2023/12/25 04:59:11;;;;;;;1.20;1.20;;;11.30;37.30;;;;;;5018667;28;20216;-70
2023/12/25 05:01:38;;;;;;;1.20;1.20;;;11.30;36.80;;;;;;5027876;28;20206;-69
2023/12/25 05:04:04;;;;;;;1.10;1.10;;;11.30;37.20;;;;;;5027496;28;20274;-69
2023/12/25 05:06:31;;;;;;;1.40;1.30;;;11.30;37.30;;;;;;5030738;28;20227;-69
2023/12/25 05:08:57;;;;;;;1.00;1.00;;;11.20;38.40;;;;;;5005501;28;20295;-69
2023/12/25 05:11:24;;;;;;;1.23;1.10;;;11.20;37.40;;;;;;5029245;28;20272;-69
2023/12/25 05:13:50;;;;;;;1.27;1.27;;;11.30;37.10;;;;;;5031316;28;20206;-69
2023/12/25 05:16:17;;;;;;;1.30;1.20;;;11.30;37.20;;;;;;5028973;28;20259;-69
2023/12/25 05:18:44;;;;;;;1.10;1.10;;;11.30;37.30;;;;;;5030197;28;20202;-69
2023/12/25 05:21:10;;;;;;;1.40;1.30;;;11.30;37.00;;;;;;5028090;28;20206;-69
2023/12/25 05:23:37;;;;;;;1.30;1.20;;;11.30;37.10;;;;;;5028711;28;20246;-69
2023/12/25 05:26:03;;;;;;;1.27;1.17;;;11.40;37.10;;;;;;5029698;28;20233;-69
2023/12/25 05:28:30;;;;;;;1.27;1.27;;;11.30;37.20;;;;;;5022155;28;20674;-69
2023/12/25 05:30:56;;;;;;;1.23;1.20;;;11.30;37.70;;;;;;5026002;28;20234;-69
2023/12/25 05:33:23;;;;;;;1.70;1.10;;;11.30;37.70;;;;;;5023931;28;20280;-69
2023/12/25 05:35:49;;;;;;;1.30;1.20;;;11.30;37.80;;;;;;5032990;28;20222;-69
2023/12/25 05:38:16;;;;;;;2.00;1.20;;;11.30;38.00;;;;;;5029960;28;20255;-69
2023/12/25 05:40:43;;;;;;;1.30;1.20;;;11.40;38.20;;;;;;5030235;28;20219;-69
2023/12/25 05:43:10;;;;;;;1.10;1.03;;;11.40;38.40;;;;;;5022376;28;20218;-69
2023/12/25 05:45:37;;;;;;;1.10;1.10;;;11.40;38.50;;;;;;5028718;28;20585;-70
2023/12/25 05:48:04;;;;;;;1.30;1.20;;;11.30;39.00;;;;;;5029761;28;20218;-69
2023/12/25 05:50:30;;;;;;;1.10;1.10;;;11.30;39.30;;;;;;5029149;28;20238;-70
2023/12/25 05:52:57;;;;;;;1.70;1.10;;;11.30;39.60;;;;;;5031244;28;20205;-70
2023/12/25 05:55:25;;;;;;;1.20;1.20;;;11.30;40.00;;;;;;5030475;28;20291;-69
2023/12/25 05:57:51;;;;;;;1.00;1.00;;;11.30;40.30;;;;;;5028491;28;20246;-69
2023/12/25 06:00:18;;;;;;;1.80;1.13;;;11.30;40.10;;;;;;5031034;28;20206;-70
2023/12/25 06:02:44;;;;;;;1.33;1.23;;;11.20;40.50;;;;;;5030504;28;20260;-69
2023/12/25 06:05:11;;;;;;;1.60;1.00;;;11.30;40.50;;;;;;5030896;28;20226;-69
2023/12/25 06:07:38;;;;;;;1.03;1.03;;;11.20;40.30;;;;;;5029771;28;20204;-69
2023/12/25 06:10:04;;;;;;;1.00;1.00;;;11.20;40.90;;;;;;5030549;28;20210;-69
2023/12/25 06:12:31;;;;;;;1.37;1.27;;;11.20;40.10;;;;;;5032854;28;20764;-70
2023/12/25 06:14:58;;;;;;;1.50;1.40;;;11.10;39.70;;;;;;5033645;28;20250;-69
2023/12/25 06:17:24;;;;;;;1.40;1.30;;;11.10;39.70;;;;;;5033261;28;20663;-69
2023/12/25 06:19:51;;;;;;;1.10;1.10;;;11.00;39.40;;;;;;5032978;28;22090;-69
2023/12/25 06:22:17;;;;;;;1.37;1.27;;;11.10;38.60;;;;;;5035287;28;20270;-69
2023/12/25 06:24:44;;;;;;;1.13;1.13;;;11.10;38.80;;;;;;5033107;28;20344;-69
2023/12/25 06:27:10;;;;;;;1.10;1.10;;;11.00;38.00;;;;;;5034272;28;20207;-69
2023/12/25 06:29:38;;;;;;;1.37;1.33;;;11.00;37.80;;;;;;5034008;28;20276;-69
2023/12/25 06:32:04;;;;;;;1.10;1.10;;;10.90;37.50;;;;;;5031694;28;20685;-69
2023/12/25 06:34:31;;;;;;;1.40;1.30;;;10.90;37.20;;;;;;5033542;28;20241;-69
2023/12/25 06:36:57;;;;;;;1.20;1.20;;;10.90;37.20;;;;;;5036153;28;20218;-69
2023/12/25 06:39:24;;;;;;;1.20;1.10;;;10.80;37.30;;;;;;5032854;28;20806;-69
2023/12/25 06:41:50;;;;;;;1.33;1.23;;;10.80;37.00;;;;;;5032608;28;20279;-69
2023/12/25 06:44:17;;;;;;;1.03;1.03;;;10.80;36.00;;;;;;5022609;28;20238;-69
2023/12/25 06:46:43;;;;;;;1.20;1.10;;;10.80;36.00;;;;;;5033022;28;20260;-70
2023/12/25 06:49:10;;;;;;;1.30;1.30;;;10.70;35.90;;;;;;5032673;28;20233;-70
2023/12/25 06:51:36;;;;;;;1.30;1.30;;;10.70;37.10;;;;;;5033317;28;20236;-69
2023/12/25 06:54:03;;;;;;;1.13;1.13;;;10.60;36.00;;;;;;5033755;28;20222;-69
2023/12/25 06:56:30;;;;;;;1.30;1.20;;;10.60;36.00;;;;;;5034241;28;20224;-69
2023/12/25 06:58:56;;;;;;;1.20;1.20;;;10.60;36.00;;;;;;5021504;28;20217;-68
2023/12/25 07:01:23;;;;;;;1.30;1.30;;;10.60;35.80;;;;;;5031684;28;20213;-69
2023/12/25 07:03:49;;;;;;;1.20;1.20;;;10.60;35.80;;;;;;5032644;28;20630;-69
2023/12/25 07:06:16;;;;;;;1.40;1.40;;;10.60;36.00;;;;;;5031570;28;20258;-69
2023/12/25 07:08:43;;;;;;;1.43;1.33;;;10.50;35.70;;;;;;5033443;28;20696;-69
2023/12/25 07:11:09;;;;;;;1.77;1.40;;;10.50;36.00;;;;;;5027881;28;20702;-69
2023/12/25 07:13:36;;;;;;;1.27;1.17;;;10.40;36.00;;;;;;5033931;28;20252;-68
2023/12/25 07:16:03;;;;;;;1.40;1.40;;;10.40;36.10;;;;;;5029030;28;20237;-69
2023/12/25 07:18:29;;;;;;;1.70;1.30;;;10.40;36.50;;;;;;5027739;28;20260;-69
2023/12/25 07:20:56;;;;;;;1.60;1.40;;;10.40;36.50;;;;;;5020900;28;20656;-69
2023/12/25 07:23:23;;;;;;;1.10;1.00;;;10.30;36.80;;;;;;5031638;28;20206;-69
2023/12/25 07:25:49;;;;;;;1.50;1.40;;;10.30;36.50;;;;;;5031523;28;20226;-69
2023/12/25 07:28:16;;;;;;;1.90;1.50;;;10.30;36.60;;;;;;5032046;28;20208;-69
2023/12/25 07:30:43;;;;;;;1.43;1.37;;;10.30;36.80;;;;;;5031517;28;20213;-69
2023/12/25 07:33:10;;;;;;;1.97;1.30;;;10.30;36.90;;;;;;5030651;28;20581;-69
2023/12/25 07:35:36;;;;;;;1.13;1.13;;;10.30;36.60;;;;;;5033300;28;20674;-69
2023/12/25 07:38:04;;;;;;;1.20;1.20;;;10.20;36.00;;;;;;5031088;28;20265;-70
2023/12/25 07:40:30;;;;;;;1.60;1.50;;;10.20;35.90;;;;;;5032368;28;20213;-68
2023/12/25 07:42:57;;;;;;;1.33;1.30;;;10.30;36.10;;;;;;5029637;28;20232;-69
2023/12/25 07:45:23;;;;;;;1.23;1.10;;;10.30;36.50;;;;;;5031288;28;20228;-69
2023/12/25 07:47:50;;;;;;;1.40;1.30;;;10.30;36.90;;;;;;5031919;28;20201;-69
2023/12/25 07:50:17;;;;;;;1.30;1.30;;;10.20;37.40;;;;;;5029169;28;20205;-69
2023/12/25 07:52:43;;;;;;;1.53;1.43;;;10.20;36.90;;;;;;5023069;28;20213;-69
2023/12/25 07:55:10;;;;;;;1.30;1.30;;;10.20;36.40;;;;;;5025624;28;20316;-71
2023/12/25 07:57:36;;;;;;;1.63;1.37;;;10.30;36.20;;;;;;5025490;28;20249;-71
2023/12/25 08:00:03;;;;;;;2.60;2.40;;;10.30;36.30;;;;;;5029262;28;20215;-70
2023/12/25 08:02:29;;;;;;;1.60;1.50;;;10.40;36.30;;;;;;5035217;28;20284;-71
2023/12/25 08:04:56;;;;;;;1.40;1.40;;;10.40;36.00;;;;;;5030770;28;20315;-70
2023/12/25 08:07:23;;;;;;;1.40;1.30;;;10.50;35.70;;;;;;5027457;28;20501;-71
2023/12/25 08:09:49;;;;;;;1.60;1.40;;;10.50;35.70;;;;;;5030963;28;20295;-71
2023/12/25 08:12:16;;;;;;;1.50;1.40;;;10.60;35.30;;;;;;5024362;28;20654;-64
2023/12/25 08:14:43;;;;;;;5.50;2.00;;;10.80;36.90;;;;;;5028275;28;20223;-67
2023/12/25 08:17:09;;;;;;;4.47;1.63;;;11.20;37.30;;;;;;5007244;28;20268;-66
2023/12/25 08:19:36;;;;;;;1.40;1.30;;;11.50;36.90;;;;;;5026975;28;20233;-73
2023/12/25 08:22:02;;;;;;;1.50;1.40;;;11.40;34.20;;;;;;5019626;28;20212;-72
2023/12/25 08:24:29;;;;;;;1.07;1.07;;;11.30;34.40;;;;;;5021625;28;20235;-71
2023/12/25 08:26:55;;;;;;;1.47;1.13;;;11.10;34.00;;;;;;5026959;28;20261;-70
2023/12/25 08:29:22;;;;;;;2.17;1.77;;;11.00;33.80;;;;;;5023647;28;20207;-71
2023/12/25 08:31:49;;;;;;;1.50;1.40;;;11.10;34.70;;;;;;5028817;28;20227;-70
2023/12/25 08:34:15;;;;;;;1.70;1.23;;;11.30;33.50;;;;;;5022922;28;20204;-69
2023/12/25 08:36:42;;;;;;;1.63;1.53;;;11.30;33.40;;;;;;5026120;28;20287;-70
2023/12/25 08:39:08;;;;;;;1.60;1.50;;;11.20;33.70;;;;;;5029243;28;20267;-70
2023/12/25 08:41:35;;;;;;;1.50;1.40;;;11.10;33.70;;;;;;5027466;28;20771;-71
2023/12/25 08:44:02;;;;;;;1.30;1.30;;;11.00;34.00;;;;;;5028513;28;20211;-69
2023/12/25 08:46:29;;;;;;;1.33;1.23;;;11.00;33.20;;;;;;5028623;28;20373;-71
2023/12/25 08:48:55;;;;;;;1.30;1.20;;;11.00;32.70;;;;;;5030680;28;20207;-68
2023/12/25 08:51:22;;;;;;;54.20;29.97;;;11.00;32.70;;;;;;5028077;28;20610;-68
2023/12/25 08:53:48;;;;;;;2.30;2.10;;;11.10;33.30;;;;;;5029105;28;20213;-71
2023/12/25 08:56:15;;;;;;;1.53;1.40;;;11.20;31.10;;;;;;5029877;28;20573;-71
2023/12/25 08:58:42;;;;;;;2.00;1.63;;;11.10;31.00;;;;;;5025478;28;20220;-70
2023/12/25 09:01:08;;;;;;;1.40;1.20;;;11.10;30.60;;;;;;5033583;28;20204;-72
2023/12/25 09:03:35;;;;;;;1.40;1.30;;;11.10;30.60;;;;;;5030699;28;20213;-74
2023/12/25 09:06:03;;;;;;;1.47;1.37;;;11.10;30.00;;;;;;5031564;28;20223;-74
2023/12/25 09:08:29;;;;;;;1.60;1.50;;;11.10;29.80;;;;;;5031153;28;20222;-73
2023/12/25 09:10:56;;;;;;;1.00;1.00;;;11.20;29.30;;;;;;5031546;28;20236;-71
2023/12/25 09:13:22;;;;;;;1.60;1.50;;;11.20;29.30;;;;;;5030951;28;20269;-74
2023/12/25 09:15:49;;;;;;;1.60;1.50;;;11.40;29.00;;;;;;5029853;28;20230;-67
2023/12/25 09:18:15;;;;;;;1.43;1.33;;;11.70;28.50;;;;;;5028347;28;20226;-66
2023/12/25 09:20:42;;;;;;;1.50;1.40;;;11.90;28.20;;;;;;5031394;28;20206;-68
2023/12/25 09:23:09;;;;;;;1.40;1.30;;;12.00;28.20;;;;;;5030918;28;20207;-68
2023/12/25 09:25:35;;;;;;;1.80;1.27;;;12.30;28.20;;;;;;5029368;28;20222;-67
2023/12/25 09:28:02;;;;;;;1.20;1.20;;;12.50;27.60;;;;;;5024600;28;20622;-68
2023/12/25 09:30:29;;;;;;;1.30;1.30;;;12.60;28.00;;;;;;5029974;28;20206;-67
2023/12/25 09:32:55;;;;;;;2.10;1.30;;;12.60;27.00;;;;;;5027246;28;20238;-70
2023/12/25 09:35:22;;;;;;;187.47;109.10;;;13.40;29.10;;;;;;5027557;28;20286;-70
2023/12/25 09:37:49;;;;;;;3.63;3.33;;;13.60;26.80;;;;;;5018473;28;20781;-67
2023/12/25 09:40:24;;;;;;;1.43;1.33;;;13.50;26.30;;;;;;5023752;28;20210;-67
2023/12/25 09:42:51;;;;;;;1.30;1.20;;;13.30;25.60;;;;;;5026544;28;20212;-68
2023/12/25 09:45:17;;;;;;;1.20;1.20;;;13.10;25.40;;;;;;5030014;28;20825;-68
2023/12/25 09:47:44;;;;;;;1.00;1.00;;;13.20;25.50;;;;;;5027067;28;20274;-69
2023/12/25 09:50:11;;;;;;;1.20;1.20;;;13.50;25.40;;;;;;5031801;28;20209;-67
2023/12/25 09:52:37;;;;;;;1.10;1.10;;;14.00;24.80;;;;;;5031591;28;20625;-67
2023/12/25 09:55:04;;;;;;;1.10;1.10;;;14.60;24.00;;;;;;5034524;28;20439;-68
2023/12/25 09:57:31;;;;;;;1.23;1.03;;;14.30;23.40;;;;;;5036787;28;20286;-68
2023/12/25 09:59:57;;;;;;;1.10;1.10;;;13.60;24.00;;;;;;5031059;28;20663;-67
2023/12/25 10:02:25;;;;;;;1.00;1.00;;;13.10;24.70;;;;;;5033606;28;20214;-67
2023/12/25 10:04:51;;;;;;;1.20;1.20;;;12.90;24.80;;;;;;5023064;28;20610;-67
2023/12/25 10:07:20;;;;;;;0.97;0.97;;;12.80;24.90;;;;;;5030630;28;20240;-68
2023/12/25 10:09:47;;;;;;;0.97;0.97;;;12.70;24.80;;;;;;5030954;28;20299;-67
2023/12/25 10:12:13;;;;;;;1.30;1.20;;;12.70;24.80;;;;;;5031263;28;20319;-67
2023/12/25 10:14:40;;;;;;;1.20;1.10;;;12.70;24.50;;;;;;5032631;28;20210;-67
2023/12/25 10:17:07;;;;;;;1.50;1.40;;;12.70;24.30;;;;;;5030268;28;20210;-69
2023/12/25 10:19:33;;;;;;;3.23;1.10;;;12.70;24.70;;;;;;5030780;28;20242;-67
2023/12/25 10:22:00;;;;;;;1.17;1.17;;;12.80;24.30;;;;;;5029979;28;20214;-67
2023/12/25 10:24:27;;;;;;;1.23;1.23;;;12.90;24.10;;;;;;5030353;28;20265;-67
2023/12/25 10:26:57;;;;;;;1.00;1.00;;;13.20;23.20;;;;;;5031028;28;20267;-67
2023/12/25 10:29:23;;;;;;;1.57;1.47;;;13.20;23.20;;;;;;5034723;28;20221;-67
2023/12/25 10:31:50;;;;;;;1.10;1.10;;;13.50;23.80;;;;;;5027810;28;20568;-66
2023/12/25 10:34:16;;;;;;;1.73;1.37;;;13.80;22.60;;;;;;5030597;28;20212;-67
2023/12/25 10:36:43;;;;;;;1.00;1.00;;;14.00;23.00;;;;;;5039312;28;20257;-67
2023/12/25 10:39:10;;;;;;;1.50;1.20;;;14.10;22.20;;;;;;5022776;28;20257;-67
2023/12/25 10:41:37;;;;;;;1.30;1.20;;;14.10;22.30;;;;;;5030880;28;20599;-67
2023/12/25 10:44:03;;;;;;;1.13;1.03;;;14.20;22.00;;;;;;5030384;28;20696;-67
2023/12/25 10:46:31;;;;;;;1.53;1.37;;;14.20;22.00;;;;;;5030422;28;20227;-67
2023/12/25 10:48:58;;;;;;;1.77;1.30;;;14.40;22.20;;;;;;5030121;28;20234;-67
2023/12/25 10:51:25;;;;;;;1.23;1.20;;;14.30;21.30;;;;;;5030559;28;20211;-67
2023/12/25 10:53:51;;;;;;;1.10;1.10;;;14.20;21.40;;;;;;5030005;28;20315;-67
2023/12/25 10:56:18;;;;;;;1.83;1.10;;;14.10;21.40;;;;;;5029688;28;20268;-67
2023/12/25 10:58:44;;;;;;;1.00;1.00;;;14.10;20.80;;;;;;5031642;28;20237;-67
2023/12/25 11:01:13;;;;;;;1.27;1.20;;;14.50;21.20;;;;;;5034046;28;20217;-69
2023/12/25 11:03:39;;;;;;;1.70;1.20;;;14.30;21.90;;;;;;5033530;28;20290;-69
2023/12/25 11:06:06;;;;;;;1.43;1.33;;;13.90;21.30;;;;;;5034359;28;20647;-68
2023/12/25 11:08:32;;;;;;;1.20;1.10;;;13.80;20.70;;;;;;5034541;28;20337;-68
2023/12/25 11:10:59;;;;;;;1.27;1.17;;;14.00;20.80;;;;;;5033642;28;20283;-68
2023/12/25 11:13:25;;;;;;;1.17;1.07;;;14.10;20.70;;;;;;5037531;28;20240;-68
2023/12/25 11:15:52;;;;;;;1.00;1.00;;;14.00;20.90;;;;;;5018059;28;20236;-68
2023/12/25 11:18:19;;;;;;;1.07;0.97;;;14.10;20.70;;;;;;5033325;28;20251;-68
2023/12/25 11:20:45;;;;;;;3.53;2.33;;;14.50;20.30;;;;;;5034108;28;20214;-68
2023/12/25 11:23:12;;;;;;;1.60;1.50;;;14.50;20.30;;;;;;5034075;28;20210;-68
2023/12/25 11:25:38;;;;;;;1.07;1.07;;;14.50;20.20;;;;;;5034115;28;20683;-68
2023/12/25 11:28:05;;;;;;;1.20;1.00;;;14.50;20.20;;;;;;5033222;28;20661;-68
2023/12/25 11:30:32;;;;;;;1.10;1.10;;;14.70;20.50;;;;;;5032344;28;20212;-68
2023/12/25 11:32:58;;;;;;;1.30;1.30;;;14.50;20.00;;;;;;5032799;28;20239;-68
2023/12/25 11:35:25;;;;;;;1.10;1.10;;;14.60;20.30;;;;;;5033651;28;20230;-67
2023/12/25 11:37:52;;;;;;;1.20;1.20;;;15.20;20.20;;;;;;5031344;28;20251;-67
2023/12/25 11:40:18;;;;;;;1.33;1.03;;;16.80;19.10;;;;;;5030388;28;20234;-67
2023/12/25 11:42:45;;;;;;;1.63;1.00;;;17.50;17.40;;;;;;5035577;28;20509;-67
2023/12/25 11:45:11;;;;;;;1.10;1.10;;;17.30;18.10;;;;;;5030869;28;20268;-67
2023/12/25 11:47:39;;;;;;;1.20;1.10;;;16.10;18.50;;;;;;5037482;28;20235;-67
2023/12/25 11:50:05;;;;;;;1.23;1.13;;;16.10;18.40;;;;;;5033869;28;20202;-67
2023/12/25 11:52:31;;;;;;;1.80;1.10;;;16.70;19.00;;;;;;5030254;28;20250;-73
2023/12/25 11:54:58;;;;;;;1.20;1.10;;;17.20;17.00;;;;;;5032360;28;20260;-67
2023/12/25 11:57:25;;;;;;;1.03;1.03;;;17.80;16.60;;;;;;5032269;28;20292;-66
2023/12/25 11:59:51;;;;;;;1.00;1.00;;;18.00;17.00;;;;;;5031428;28;20650;-71
2023/12/25 12:02:18;;;;;;;1.20;1.17;;;17.60;17.00;;;;;;5027908;28;20202;-69
2023/12/25 12:04:44;;;;;;;1.57;1.20;;;16.70;17.90;;;;;;5031114;28;20218;-69
2023/12/25 12:07:11;;;;;;;1.10;1.00;;;16.30;18.30;;;;;;5032197;28;20225;-69
2023/12/25 12:09:37;;;;;;;1.05;1.05;;;15.80;18.00;;;;;;5031241;28;20230;-70
2023/12/25 12:12:04;;;;;;;1.30;1.20;;;15.80;19.20;;;;;;5028811;28;20700;-69
2023/12/25 12:14:31;;;;;;;1.00;1.00;;;15.60;18.40;;;;;;5032811;28;20213;-69
2023/12/25 12:16:57;;;;;;;0.90;0.90;;;15.40;18.90;;;;;;5030451;28;20216;-70
2023/12/25 12:19:24;;;;;;;219.07;137.63;;;15.30;18.90;;;;;;5032933;28;20307;-69
2023/12/25 12:21:51;;;;;;;2.20;2.00;;;15.30;19.40;;;;;;5033002;28;20467;-71
2023/12/25 12:24:17;;;;;;;0.90;0.90;;;15.10;18.70;;;;;;5032154;28;20253;-70
2023/12/25 12:26:44;;;;;;;0.87;0.87;;;15.10;19.30;;;;;;5031790;28;20596;-72
2023/12/25 12:29:09;;;;;;;1.20;1.10;;;15.10;18.70;;;;;;5032372;28;20272;-70
2023/12/25 12:31:37;;;;;;;1.07;1.00;;;15.00;18.70;;;;;;5037066;28;20662;-72
2023/12/25 12:34:03;;;;;;;0.87;0.87;;;14.90;19.40;;;;;;5031946;28;20205;-73
2023/12/25 12:36:30;;;;;;;0.87;0.87;;;14.90;19.10;;;;;;5025805;28;20734;-73
2023/12/25 12:38:56;;;;;;;1.00;1.00;;;14.90;18.60;;;;;;5028753;28;20254;-70
2023/12/25 12:41:23;;;;;;;1.00;1.00;;;14.70;18.50;;;;;;5032434;28;20676;-69
2023/12/25 12:43:49;;;;;;;1.13;1.03;;;14.70;18.50;;;;;;5031724;28;20238;-71